Aérodrome :
LOGIN :

S'inscrire | Disclaimer

   EN    FR    IT 

 










Légende :    VFR   VFR Marginal   IFR   IFR Intensif   IFR Très Intensif
Visi : 
Plafond : 
>= 8 km
>= 3000ft
5 à 8 km
1000 à 3000 ft
1500m à 5 km
500 à 1000 ft
800 à 1500m
200 à 500 ft
< 800m
< 200 ft
Symboles :   Orages  Brouillard  Fortes neiges  Fortes précipitations  Vent > 20 kt
SIGMETs :   Divers  Orages  Givrage  Turbulence  Onde Orograph.  Cendres Volcan.






- Altitude de l'aérodrome : 119 ft
- Code IATA : WAT


EIWF - Waterford

DERNIER METAR :
  • 271230Z 32009KT 280V010 9999 FEW031 06/01 Q1009

METARs EXPIRÉS :
  • 271200Z 34009KT 310V030 CAVOK 07/02 Q1009 R03/0/////
  • 271130Z 33011KT 280V020 CAVOK 06/02 Q1008 R03/0/////
  • 271100Z 35011KT 310V020 CAVOK 06/02 Q1007 R03/1/////
  • 271030Z 35012KT 320V020 CAVOK 05/02 Q1007 R03/1/////

TAF TAF EIWF
Valide du 27 à 12h jusqu'au 27 à 21h UTC


271100Z 2712/2721 33011KT 9999 FEW018
BECMG 2715/2717 29006KT
BECMG 2717/2719 25005KT
BECMG 2719/2721 22010KT
ATIS : +353 51 877 000



MET'MAP, la Météo Aéronautique d'un coup d'oeil ! - Copyright ORBIFLY Décembre 2007 - Disclaimer

ORBIFLY MET'MAP TEAM :

Programmation & Développement : Alexandra Zaïnal
Sur une idée originale de : Baudouin d'Aumeries
Assistance à la programmation : Marc-Olivier Méhu
Soutien technique & logistique : Manuel Goepfert

Contact : metmap@orbifly.com




SOURCES & CREDITS :

   NOAA